Terminal Aerodrome Forecast
Issued by NWS

Home | Current Version | Previous Version | Graphics & Text | Print | Product List | Glossary On
Versions: 1 2 3 4 5 6 7 8 9 10 11 12 13 14 15 16 17
577
FTUS43 KABR 211120
TAFMBG
TAF
KMBG 211120Z 2112/2212 33021G31KT P6SM SKC
     FM211800 33013G20KT P6SM FEW250
     FM212200 33009KT P6SM FEW250
     FM220000 32005KT P6SM FEW250
     FM220500 17004KT P6SM FEW250
     FM220900 16008KT P6SM FEW250=

USA.gov is the U.S. government's official web portal to all federal, state and local government web resources and services.